createdAt,value
2022-12-14T00:02:07.161Z,16.02
2022-12-14T00:06:11.669Z,23.30
2022-12-14T00:10:14.375Z,18.65
2022-12-14T00:14:18.507Z,25.80
2022-12-14T00:18:22.713Z,24.83
2022-12-14T00:22:25.514Z,22.10
2022-12-14T00:26:30.903Z,22.63
2022-12-14T00:30:35.313Z,28.70
2022-12-14T00:34:38.026Z,23.83
2022-12-14T00:38:42.290Z,24.65
2022-12-14T00:42:44.975Z,23.70
2022-12-14T00:46:48.982Z,26.15
2022-12-14T00:50:53.711Z,24.85
2022-12-14T00:54:56.348Z,24.50
2022-12-14T00:58:59.037Z,26.80
2022-12-14T01:03:03.326Z,23.80
2022-12-14T01:07:06.088Z,27.92
2022-12-14T01:11:13.177Z,26.27
2022-12-14T01:15:16.107Z,26.33
2022-12-14T01:19:20.196Z,24.15
2022-12-14T01:23:22.907Z,29.92
2022-12-14T01:27:25.934Z,27.13
2022-12-14T01:37:51.595Z,25.95
2022-12-14T01:41:54.334Z,26.70
2022-12-14T01:45:57.332Z,31.35
2022-12-14T01:50:07.625Z,24.65
2022-12-14T01:54:14.048Z,29.67
2022-12-14T01:58:19.617Z,25.42
2022-12-14T02:02:23.066Z,26.55
2022-12-14T02:06:30.560Z,28.73
2022-12-14T02:10:35.144Z,26.83
2022-12-14T02:14:38.636Z,27.85
2022-12-14T02:18:41.455Z,25.05
2022-12-14T02:23:23.352Z,29.33
2022-12-14T02:27:47.713Z,28.50
2022-12-14T02:31:59.206Z,24.38
2022-12-14T02:36:05.953Z,24.42
2022-12-14T02:40:22.622Z,28.77
2022-12-14T02:44:40.731Z,26.98
2022-12-14T02:48:49.471Z,27.95
2022-12-14T02:52:59.538Z,28.65
2022-12-14T02:57:07.867Z,30.73
2022-12-14T03:01:13.816Z,33.85
2022-12-14T03:05:18.107Z,26.98
2022-12-14T03:09:21.004Z,30.58
2022-12-14T03:13:28.233Z,30.02
2022-12-14T03:17:34.902Z,26.58
2022-12-14T03:21:44.152Z,28.27
2022-12-14T03:53:45.915Z,31.50
2022-12-14T03:58:04.202Z,30.17
2022-12-14T04:02:16.753Z,27.50
2022-12-14T04:06:28.500Z,34.95
2022-12-14T04:10:57.813Z,29.08
2022-12-14T04:15:23.068Z,29.02
2022-12-14T04:19:32.561Z,29.25
2022-12-14T04:23:58.585Z,35.20
2022-12-14T04:28:06.967Z,31.10
2022-12-14T04:32:14.839Z,29.05
2022-12-14T04:36:23.579Z,28.67
2022-12-14T04:40:31.147Z,32.40
2022-12-14T04:44:38.454Z,32.03
2022-12-14T04:48:46.178Z,31.33
2022-12-14T04:52:54.016Z,31.13
2022-12-14T04:57:02.202Z,32.92
2022-12-14T05:01:21.019Z,29.25
2022-12-14T05:05:30.754Z,29.77
2022-12-14T05:09:37.967Z,31.85
2022-12-14T05:13:44.318Z,30.92
2022-12-14T05:17:53.760Z,35.65
2022-12-14T05:21:56.720Z,29.58
2022-12-14T05:25:59.464Z,33.50
2022-12-14T05:30:02.262Z,30.00
2022-12-14T05:34:06.398Z,32.25
2022-12-14T05:38:10.056Z,37.47
2022-12-14T05:42:12.855Z,33.47
2022-12-14T05:46:15.728Z,37.05
2022-12-14T05:50:19.943Z,33.05
2022-12-14T05:54:22.744Z,26.92
2022-12-14T05:58:25.778Z,29.65
2022-12-14T06:02:28.626Z,36.53
2022-12-14T06:06:34.210Z,33.95
2022-12-14T06:10:37.005Z,33.17
2022-12-14T06:14:39.788Z,32.42
2022-12-14T06:18:44.177Z,33.05
2022-12-14T06:22:48.324Z,32.00
2022-12-14T06:26:51.225Z,34.35
2022-12-14T06:30:54.060Z,33.92
2022-12-14T06:34:56.919Z,31.42
2022-12-14T06:39:02.737Z,39.28
2022-12-14T06:43:05.560Z,33.55
2022-12-14T06:47:08.371Z,37.92
2022-12-14T06:51:11.472Z,38.38
2022-12-14T06:55:15.884Z,36.90
2022-12-14T06:59:18.669Z,41.22
2022-12-14T07:03:21.441Z,26.55
2022-12-14T07:07:24.192Z,38.92
2022-12-14T07:11:29.389Z,34.38
2022-12-14T07:15:32.242Z,38.22
2022-12-14T07:19:35.060Z,35.33
2022-12-14T07:23:39.682Z,36.08
2022-12-14T07:27:43.839Z,42.10
2022-12-14T07:31:49.381Z,40.13
2022-12-14T07:39:55.250Z,38.72
2022-12-14T07:44:01.230Z,37.40
2022-12-14T07:48:04.142Z,38.47
2022-12-14T07:52:06.938Z,37.40
2022-12-14T07:56:12.091Z,37.85
2022-12-14T08:00:17.674Z,39.20
2022-12-14T08:04:21.031Z,41.47
2022-12-14T08:08:23.844Z,47.47
2022-12-14T08:12:26.593Z,48.17
2022-12-14T08:16:32.657Z,39.83
2022-12-14T08:20:35.539Z,49.08
2022-12-14T08:24:38.267Z,40.58
2022-12-14T08:28:41.255Z,38.40
2022-12-14T08:32:45.337Z,39.35
2022-12-14T08:36:48.067Z,43.22
2022-12-14T08:40:50.778Z,41.08
2022-12-14T08:44:53.506Z,43.05
2022-12-14T08:48:58.888Z,41.97
2022-12-14T08:53:02.060Z,44.92
2022-12-14T08:57:05.368Z,45.53
2022-12-14T09:01:12.164Z,40.05
2022-12-14T09:05:17.780Z,40.65
2022-12-14T09:09:20.581Z,42.88
2022-12-14T09:13:23.388Z,43.05
2022-12-14T09:17:26.164Z,43.22
2022-12-14T09:21:31.562Z,39.00
2022-12-14T09:25:35.035Z,39.92
2022-12-14T09:29:37.793Z,46.47
2022-12-14T09:33:40.897Z,33.35
2022-12-14T09:37:45.021Z,45.53
2022-12-14T09:42:00.849Z,41.55
2022-12-14T09:46:20.246Z,53.33
2022-12-14T09:50:24.363Z,39.72
2022-12-14T09:54:30.764Z,45.40
2022-12-14T09:58:34.795Z,43.53
2022-12-14T10:02:47.390Z,44.72
2022-12-14T10:06:56.531Z,56.05
2022-12-14T10:11:07.284Z,48.55
2022-12-14T10:15:22.041Z,43.55
2022-12-14T10:19:35.959Z,37.85
2022-12-14T10:23:42.486Z,35.67
2022-12-14T10:28:10.301Z,39.60
2022-12-14T10:32:21.663Z,38.83
2022-12-14T10:36:29.909Z,42.95
2022-12-14T10:40:35.236Z,38.10
2022-12-14T10:44:49.408Z,45.25
2022-12-14T10:49:00.691Z,41.65
2022-12-14T10:53:05.768Z,46.75
2022-12-14T10:57:08.631Z,39.85
2022-12-14T11:01:15.596Z,40.58
2022-12-14T11:05:32.495Z,42.15
2022-12-14T11:09:40.370Z,39.95
2022-12-14T11:13:50.480Z,42.65
2022-12-14T11:18:04.496Z,40.00
2022-12-14T11:22:18.657Z,36.80
2022-12-14T11:26:29.187Z,37.38
2022-12-14T11:30:32.114Z,34.85
2022-12-14T11:34:39.350Z,39.35
2022-12-14T11:38:42.802Z,38.22
2022-12-14T11:42:49.791Z,32.55
2022-12-14T11:46:56.442Z,37.45
2022-12-14T11:51:12.594Z,34.88
2022-12-14T11:55:24.672Z,32.90
2022-12-14T11:59:37.456Z,40.90
2022-12-14T12:03:43.921Z,33.80
2022-12-14T12:07:53.632Z,43.45
2022-12-14T12:11:56.454Z,37.72
2022-12-14T12:16:01.258Z,41.13
2022-12-14T12:20:13.827Z,36.33
2022-12-14T12:24:22.528Z,37.03
2022-12-14T12:28:29.391Z,37.35
2022-12-14T12:32:38.428Z,41.22
2022-12-14T12:37:02.744Z,37.28
2022-12-14T12:41:13.436Z,36.17
2022-12-14T12:45:21.856Z,39.15
2022-12-14T12:49:24.793Z,36.90
2022-12-14T12:53:31.820Z,36.97
2022-12-14T12:57:41.671Z,38.50
2022-12-14T13:01:48.132Z,38.88
2022-12-14T13:05:55.194Z,34.35
2022-12-14T13:10:05.789Z,34.55
2022-12-14T13:14:24.555Z,31.23
2022-12-14T13:18:56.733Z,31.63
2022-12-14T13:22:53.708Z,32.90
2022-12-14T13:27:18.123Z,33.55
2022-12-14T13:31:36.256Z,33.33
2022-12-14T13:36:10.457Z,32.30
2022-12-14T13:40:41.515Z,33.65
2022-12-14T13:44:56.987Z,42.50
2022-12-14T13:49:06.026Z,35.95
2022-12-14T13:53:17.265Z,38.53
2022-12-14T13:57:23.861Z,37.88
2022-12-14T14:02:01.155Z,37.50
2022-12-14T14:06:09.471Z,40.90
2022-12-14T14:10:30.254Z,41.70
2022-12-14T14:14:44.628Z,40.13
2022-12-14T14:18:51.688Z,44.10
2022-12-14T14:23:27.727Z,46.40
2022-12-14T14:27:37.795Z,47.10
2022-12-14T14:31:48.943Z,45.25
2022-12-14T14:35:51.810Z,49.67
2022-12-14T14:40:18.735Z,47.15
2022-12-14T14:44:37.961Z,45.83
2022-12-14T14:48:43.772Z,46.67
2022-12-14T14:52:58.665Z,44.92
2022-12-14T14:57:02.438Z,40.75
2022-12-14T15:01:25.006Z,43.30
2022-12-14T15:05:44.768Z,48.83
2022-12-14T15:09:49.174Z,46.65
2022-12-14T15:13:55.406Z,56.47
2022-12-14T15:22:19.425Z,54.50
2022-12-14T15:26:25.638Z,60.58
2022-12-14T15:34:32.101Z,63.05
2022-12-14T15:38:38.148Z,57.15
2022-12-14T15:42:47.308Z,56.85
2022-12-14T15:46:55.089Z,52.10
2022-12-14T15:51:03.002Z,54.83
2022-12-14T15:55:20.946Z,51.22
2022-12-14T15:59:26.196Z,55.65
2022-12-14T16:03:33.177Z,49.27
2022-12-14T16:07:39.462Z,61.45
2022-12-14T16:11:46.601Z,53.45
2022-12-14T16:15:49.897Z,55.47
2022-12-14T16:19:59.994Z,56.50
2022-12-14T16:24:22.077Z,59.47
2022-12-14T16:28:29.805Z,51.83
2022-12-14T16:32:32.801Z,52.70
2022-12-14T16:36:36.672Z,56.22
2022-12-14T16:40:43.194Z,50.85
2022-12-14T16:44:48.665Z,52.90
2022-12-14T16:49:19.618Z,46.42
2022-12-14T16:54:12.260Z,57.30
2022-12-14T16:58:18.793Z,48.22
2022-12-14T17:02:30.243Z,44.83
2022-12-14T17:06:47.382Z,50.97
2022-12-14T17:10:50.809Z,49.45
2022-12-14T17:21:30.741Z,52.30
2022-12-14T17:25:35.516Z,53.80
2022-12-14T17:29:38.302Z,55.88
2022-12-14T17:33:42.549Z,71.45
2022-12-14T17:38:20.872Z,42.92
2022-12-14T17:47:40.605Z,57.92
2022-12-14T17:51:46.972Z,62.38
2022-12-14T18:13:32.350Z,35.00
2022-12-14T18:17:35.431Z,35.75
2022-12-14T18:21:38.109Z,35.70
2022-12-14T18:25:53.698Z,30.10
2022-12-14T18:29:57.810Z,31.80
2022-12-14T18:34:00.502Z,38.00
2022-12-14T18:38:19.527Z,43.15
2022-12-14T18:42:22.891Z,37.83
2022-12-14T18:46:30.685Z,38.28
2022-12-14T18:50:36.192Z,41.63
2022-12-14T18:54:42.336Z,43.60
2022-12-14T18:58:46.394Z,36.60
2022-12-14T19:02:51.538Z,36.75
2022-12-14T19:06:54.858Z,38.17
2022-12-14T19:10:59.373Z,36.65
2022-12-14T19:15:02.849Z,32.75
2022-12-14T19:19:07.235Z,28.67
2022-12-14T19:23:15.998Z,26.73
2022-12-14T19:27:35.706Z,28.17
2022-12-14T19:31:42.358Z,25.20
2022-12-14T19:35:48.609Z,27.45
2022-12-14T19:43:57.229Z,26.90
2022-12-14T19:48:00.549Z,25.10
2022-12-14T19:52:59.145Z,25.70
2022-12-14T19:57:03.883Z,23.77
2022-12-14T20:01:10.582Z,26.42
2022-12-14T20:05:14.764Z,25.42
2022-12-14T20:09:18.991Z,31.50
2022-12-14T20:13:25.167Z,27.48
2022-12-14T20:21:31.398Z,27.38
2022-12-14T20:25:34.331Z,24.52
2022-12-14T20:29:39.811Z,25.40
2022-12-14T20:33:43.418Z,28.48
2022-12-14T20:37:46.626Z,25.15
2022-12-14T20:41:49.942Z,26.02
2022-12-14T20:45:54.498Z,25.92
2022-12-14T20:49:57.345Z,22.63
2022-12-14T20:54:00.331Z,29.48
2022-12-14T20:58:03.256Z,22.20
2022-12-14T21:02:08.047Z,21.50
2022-12-14T21:06:11.702Z,21.60
2022-12-14T21:10:14.524Z,18.95
2022-12-14T21:14:18.151Z,19.23
2022-12-14T21:18:24.599Z,20.25
2022-12-14T21:22:31.414Z,21.60
2022-12-14T21:26:35.346Z,21.30
2022-12-14T21:36:26.623Z,21.05
2022-12-14T21:41:12.163Z,23.00
2022-12-14T21:45:15.015Z,26.92
2022-12-14T21:49:18.169Z,24.90
2022-12-14T21:53:22.351Z,22.83
2022-12-14T21:57:49.370Z,22.98
2022-12-14T22:02:25.581Z,29.25
2022-12-14T22:12:17.566Z,22.73
2022-12-14T22:16:20.463Z,21.87
2022-12-14T22:20:23.192Z,24.02
2022-12-14T22:24:27.775Z,25.25
2022-12-14T22:28:31.828Z,23.75
2022-12-14T22:32:34.563Z,27.50
2022-12-14T22:36:37.258Z,24.95
2022-12-14T22:40:39.973Z,20.90
2022-12-14T22:44:44.147Z,22.15
2022-12-14T22:48:46.894Z,19.98
2022-12-14T22:52:49.906Z,19.98
2022-12-14T22:56:56.666Z,20.65
2022-12-14T23:01:00.932Z,25.50
2022-12-14T23:05:03.862Z,20.08
2022-12-14T23:09:25.075Z,22.02
2022-12-14T23:13:45.324Z,21.35
2022-12-14T23:18:06.942Z,17.92
2022-12-14T23:22:27.046Z,20.17
2022-12-14T23:26:47.377Z,21.17
2022-12-14T23:31:07.914Z,21.50
2022-12-14T23:35:29.294Z,24.25
2022-12-14T23:39:49.693Z,24.33
2022-12-14T23:44:10.024Z,22.48
2022-12-14T23:48:30.464Z,22.48
2022-12-14T23:52:52.066Z,25.35
